createdAt,value
2022-08-11T00:02:34.030Z,49.06
2022-08-11T00:05:09.186Z,49.51
2022-08-11T00:07:44.793Z,50.22
2022-08-11T00:10:15.208Z,49.36
2022-08-11T00:12:45.106Z,49.58
2022-08-11T00:15:13.997Z,49.53
2022-08-11T00:17:44.975Z,49.34
2022-08-11T00:20:16.846Z,49.14
2022-08-11T00:22:47.516Z,49.24
2022-08-11T00:25:20.165Z,49.72
2022-08-11T00:27:49.294Z,49.99
2022-08-11T00:30:18.011Z,50.28
2022-08-11T00:32:56.216Z,50.53
2022-08-11T00:35:53.665Z,50.05
2022-08-11T00:38:18.795Z,50.24
2022-08-11T00:40:56.145Z,49.90
2022-08-11T00:43:34.114Z,49.54
2022-08-11T00:46:17.538Z,50.03
2022-08-11T00:49:03.138Z,49.94
2022-08-11T00:52:04.256Z,51.37
2022-08-11T00:54:59.463Z,50.64
2022-08-11T00:57:53.774Z,50.84
2022-08-11T01:00:23.370Z,51.08
2022-08-11T01:03:30.962Z,51.28
2022-08-11T01:06:29.296Z,50.95
2022-08-11T01:09:26.923Z,50.94
2022-08-11T01:12:20.517Z,50.77
2022-08-11T01:15:25.445Z,51.52
2022-08-11T01:18:18.799Z,51.18
2022-08-11T01:21:26.492Z,51.40
2022-08-11T01:24:57.518Z,51.58
2022-08-11T01:27:56.540Z,51.94
2022-08-11T01:30:54.927Z,51.95
2022-08-11T01:34:04.302Z,51.99
2022-08-11T01:37:17.171Z,52.03
2022-08-11T01:40:18.861Z,52.56
2022-08-11T01:44:01.001Z,52.48
2022-08-11T01:46:34.539Z,51.87
2022-08-11T01:50:05.160Z,51.73
2022-08-11T01:52:20.497Z,52.22
2022-08-11T01:55:13.926Z,51.63
2022-08-11T01:57:48.551Z,51.68
2022-08-11T02:00:21.819Z,52.86
2022-08-11T02:03:02.337Z,52.61
2022-08-11T02:06:01.304Z,52.50
2022-08-11T02:08:50.722Z,52.30
2022-08-11T02:11:35.248Z,52.64
2022-08-11T02:14:13.670Z,52.68
2022-08-11T02:16:54.094Z,51.95
2022-08-11T02:19:45.392Z,52.67
2022-08-11T02:22:41.863Z,52.10
2022-08-11T02:25:23.526Z,51.94
2022-08-11T02:27:56.951Z,52.10
2022-08-11T02:30:28.679Z,52.28
2022-08-11T02:33:24.963Z,52.83
2022-08-11T02:36:04.718Z,53.40
2022-08-11T02:38:43.246Z,53.50
2022-08-11T02:41:36.186Z,53.26
2022-08-11T02:44:22.698Z,52.58
2022-08-11T02:47:00.043Z,53.44
2022-08-11T02:50:02.734Z,52.50
2022-08-11T02:52:42.249Z,52.75
2022-08-11T02:55:56.122Z,53.14
2022-08-11T02:58:17.637Z,53.75
2022-08-11T03:00:57.451Z,53.07
2022-08-11T03:03:33.261Z,52.66
2022-08-11T03:06:13.659Z,53.50
2022-08-11T03:08:54.442Z,53.63
2022-08-11T03:12:09.349Z,53.64
2022-08-11T03:15:05.470Z,53.40
2022-08-11T03:17:39.184Z,53.25
2022-08-11T03:20:22.560Z,53.60
2022-08-11T03:22:59.946Z,54.23
2022-08-11T03:25:35.519Z,52.50
2022-08-11T03:28:14.405Z,53.71
2022-08-11T03:30:49.883Z,53.76
2022-08-11T03:33:42.211Z,53.58
2022-08-11T03:36:29.519Z,53.02
2022-08-11T03:39:13.380Z,53.82
2022-08-11T03:42:04.378Z,54.09
2022-08-11T03:44:49.465Z,54.17
2022-08-11T03:47:35.399Z,53.87
2022-08-11T03:50:11.469Z,54.05
2022-08-11T03:52:50.642Z,54.44
2022-08-11T03:55:31.862Z,54.20
2022-08-11T03:58:41.676Z,54.90
2022-08-11T04:01:44.792Z,54.76
2022-08-11T04:04:51.720Z,54.25
2022-08-11T04:07:55.777Z,54.04
2022-08-11T04:10:46.197Z,54.30
2022-08-11T04:13:42.110Z,54.11
2022-08-11T04:16:40.463Z,53.84
2022-08-11T04:19:51.147Z,54.49
2022-08-11T04:23:03.284Z,54.59
2022-08-11T04:25:58.602Z,54.61
2022-08-11T04:28:56.533Z,54.18
2022-08-11T04:31:58.016Z,53.90
2022-08-11T04:34:41.674Z,54.17
2022-08-11T04:37:35.295Z,54.33
2022-08-11T04:40:21.333Z,54.17
2022-08-11T04:43:36.805Z,54.20
2022-08-11T04:46:45.213Z,54.02
2022-08-11T04:50:18.116Z,53.74
2022-08-11T04:53:23.696Z,54.32
2022-08-11T04:56:44.589Z,54.64
2022-08-11T05:00:08.167Z,53.84
2022-08-11T05:03:22.211Z,54.18
2022-08-11T05:06:14.155Z,54.05
2022-08-11T05:09:16.968Z,54.42
2022-08-11T05:12:03.480Z,55.06
2022-08-11T05:14:53.490Z,55.00
2022-08-11T05:17:55.611Z,55.21
2022-08-11T05:20:44.499Z,55.14
2022-08-11T05:23:31.305Z,54.48
2022-08-11T05:26:47.884Z,55.25
2022-08-11T05:30:01.972Z,54.81
2022-08-11T05:32:59.348Z,54.64
2022-08-11T05:36:00.632Z,54.58
2022-08-11T05:38:47.034Z,54.93
2022-08-11T05:41:38.455Z,54.29
2022-08-11T05:44:25.151Z,54.11
2022-08-11T05:47:12.444Z,53.61
2022-08-11T05:49:59.908Z,53.91
2022-08-11T05:52:55.399Z,54.54
2022-08-11T05:56:01.731Z,52.88
2022-08-11T05:58:42.381Z,52.99
2022-08-11T06:01:15.304Z,53.40
2022-08-11T06:04:04.130Z,52.91
2022-08-11T06:06:33.769Z,52.75
2022-08-11T06:09:03.162Z,53.17
2022-08-11T06:11:42.887Z,53.26
2022-08-11T06:14:16.496Z,53.43
2022-08-11T06:16:48.193Z,53.53
2022-08-11T06:19:16.958Z,53.30
2022-08-11T06:21:48.854Z,53.34
2022-08-11T06:24:17.997Z,53.29
2022-08-11T06:27:11.072Z,53.63
2022-08-11T06:29:54.265Z,53.15
2022-08-11T06:32:29.558Z,53.14
2022-08-11T06:35:09.794Z,52.27
2022-08-11T06:37:48.745Z,51.87
2022-08-11T06:40:30.079Z,51.57
2022-08-11T06:43:02.303Z,51.47
2022-08-11T06:45:41.968Z,51.32
2022-08-11T06:48:17.769Z,51.85
2022-08-11T06:51:09.237Z,51.50
2022-08-11T06:53:42.026Z,51.36
2022-08-11T06:56:48.005Z,51.24
2022-08-11T06:59:35.210Z,51.01
2022-08-11T07:02:10.128Z,49.81
2022-08-11T07:04:44.513Z,50.14
2022-08-11T07:08:00.325Z,49.97
2022-08-11T07:11:20.270Z,49.95
2022-08-11T07:14:10.632Z,49.73
2022-08-11T07:16:43.064Z,49.33
2022-08-11T07:19:31.047Z,49.36
2022-08-11T07:22:21.767Z,49.58
2022-08-11T07:25:24.654Z,50.07
2022-08-11T07:28:18.086Z,49.54
2022-08-11T07:30:47.598Z,49.27
2022-08-11T07:34:06.845Z,48.90
2022-08-11T07:36:19.720Z,49.23
2022-08-11T07:38:52.631Z,47.25
2022-08-11T07:41:24.374Z,47.02
2022-08-11T07:43:56.106Z,46.85
2022-08-11T07:46:42.829Z,46.40
2022-08-11T07:49:30.054Z,45.72
2022-08-11T07:52:17.871Z,46.35
2022-08-11T07:54:50.102Z,47.07
2022-08-11T07:57:57.741Z,46.30
2022-08-11T08:00:51.798Z,47.12
2022-08-11T08:03:38.969Z,46.61
2022-08-11T08:06:42.144Z,47.63
2022-08-11T08:09:30.561Z,45.92
2022-08-11T08:12:19.744Z,46.53
2022-08-11T08:15:05.225Z,46.07
2022-08-11T08:18:09.979Z,45.90
2022-08-11T08:20:52.002Z,46.44
2022-08-11T08:23:33.784Z,46.75
2022-08-11T08:26:27.450Z,45.49
2022-08-11T08:29:18.852Z,45.49
2022-08-11T08:31:50.963Z,44.76
2022-08-11T08:34:23.114Z,44.49
2022-08-11T08:36:52.913Z,44.72
2022-08-11T08:39:23.838Z,44.78
2022-08-11T08:42:04.169Z,44.42
2022-08-11T08:44:40.681Z,43.15
2022-08-11T08:47:14.200Z,43.68
2022-08-11T08:49:52.113Z,44.15
2022-08-11T08:52:30.988Z,42.99
2022-08-11T08:55:18.993Z,41.46
2022-08-11T08:57:55.903Z,40.23
2022-08-11T09:00:30.590Z,39.78
2022-08-11T09:03:22.778Z,39.95
2022-08-11T09:05:56.817Z,40.06
2022-08-11T09:08:26.055Z,40.19
2022-08-11T09:11:22.645Z,39.67
2022-08-11T09:14:05.160Z,39.11
2022-08-11T09:16:41.725Z,38.48
2022-08-11T09:19:10.443Z,38.21
2022-08-11T09:21:48.437Z,37.99
2022-08-11T09:24:37.790Z,37.37
2022-08-11T09:27:09.475Z,37.64
2022-08-11T09:29:42.074Z,37.50
2022-08-11T09:32:17.926Z,36.76
2022-08-11T09:34:46.795Z,36.36
2022-08-11T09:37:54.186Z,35.59
2022-08-11T09:40:33.878Z,36.21
2022-08-11T09:43:23.819Z,37.18
2022-08-11T09:45:55.412Z,36.39
2022-08-11T09:48:25.548Z,35.68
2022-08-11T09:50:56.884Z,36.12
2022-08-11T09:53:36.535Z,35.67
2022-08-11T09:56:30.873Z,35.35
2022-08-11T09:59:00.641Z,34.84
2022-08-11T10:01:40.839Z,35.17
2022-08-11T10:04:16.450Z,35.34
2022-08-11T10:07:05.538Z,33.04
2022-08-11T10:09:40.910Z,33.71
2022-08-11T10:12:13.281Z,31.46
2022-08-11T10:15:03.907Z,28.19
2022-08-11T10:17:40.509Z,26.90
2022-08-11T10:20:13.754Z,25.88
2022-08-11T10:23:01.095Z,26.72
2022-08-11T10:25:46.678Z,27.61
2022-08-11T10:28:33.639Z,28.40
2022-08-11T10:31:27.531Z,28.62
2022-08-11T10:34:10.403Z,28.12
2022-08-11T10:36:48.233Z,29.15
2022-08-11T10:39:21.602Z,28.39
2022-08-11T10:42:20.842Z,28.79
2022-08-11T10:45:04.500Z,28.66
2022-08-11T10:47:37.291Z,28.70
2022-08-11T10:50:28.866Z,28.53
2022-08-11T10:53:18.914Z,28.30
2022-08-11T10:56:06.765Z,28.69
2022-08-11T10:58:51.044Z,28.69
2022-08-11T11:01:26.134Z,28.48
2022-08-11T11:04:00.544Z,28.51
2022-08-11T11:06:36.846Z,28.74
2022-08-11T11:09:12.549Z,27.41
2022-08-11T11:12:04.152Z,26.17
2022-08-11T11:14:58.213Z,25.44
2022-08-11T11:17:49.358Z,25.22
2022-08-11T11:20:36.764Z,24.71
2022-08-11T11:23:16.792Z,24.05
2022-08-11T11:26:10.080Z,23.65
2022-08-11T11:29:14.248Z,23.27
2022-08-11T11:32:02.319Z,23.27
2022-08-11T11:35:02.064Z,22.64
2022-08-11T11:37:33.742Z,23.25
2022-08-11T11:40:10.394Z,22.18
2022-08-11T11:42:40.463Z,22.43
2022-08-11T11:45:10.666Z,22.03
2022-08-11T11:47:53.784Z,22.34
2022-08-11T11:50:32.756Z,22.78
2022-08-11T11:53:03.798Z,22.71
2022-08-11T11:55:35.245Z,21.87
2022-08-11T11:58:23.038Z,22.83
2022-08-11T12:01:12.791Z,22.09
2022-08-11T12:03:42.443Z,22.50
2022-08-11T12:06:15.322Z,21.87
2022-08-11T12:08:45.351Z,22.03
2022-08-11T12:11:34.197Z,22.86
2022-08-11T12:14:10.716Z,22.45
2022-08-11T12:16:46.175Z,22.72
2022-08-11T12:19:19.376Z,22.51
2022-08-11T12:22:06.438Z,22.79
2022-08-11T12:24:55.455Z,22.75
2022-08-11T12:27:27.038Z,22.33
2022-08-11T12:29:58.613Z,22.59
2022-08-11T12:32:31.130Z,22.04
2022-08-11T12:35:07.842Z,22.54
2022-08-11T12:37:42.314Z,22.29
2022-08-11T12:40:49.443Z,21.72
2022-08-11T12:43:43.123Z,22.31
2022-08-11T12:46:15.492Z,22.33
2022-08-11T12:49:05.891Z,22.10
2022-08-11T12:52:11.529Z,22.31
2022-08-11T12:54:52.814Z,21.73
2022-08-11T12:57:50.222Z,21.82
2022-08-11T13:00:39.850Z,22.49
2022-08-11T13:03:28.193Z,21.89
2022-08-11T13:05:59.309Z,22.32
2022-08-11T13:08:30.107Z,22.16
2022-08-11T13:11:19.119Z,23.20
2022-08-11T13:13:55.408Z,22.70
2022-08-11T13:16:52.454Z,22.17
2022-08-11T13:19:22.330Z,23.13
2022-08-11T13:21:52.828Z,22.57
2022-08-11T13:24:25.209Z,22.39
2022-08-11T13:26:53.945Z,22.73
2022-08-11T13:29:24.459Z,22.39
2022-08-11T13:31:58.743Z,22.25
2022-08-11T13:34:28.310Z,22.47
2022-08-11T13:36:58.610Z,22.10
2022-08-11T13:39:29.369Z,22.49
2022-08-11T13:42:00.448Z,22.14
2022-08-11T13:44:30.986Z,21.98
2022-08-11T13:47:04.668Z,21.77
2022-08-11T13:49:34.712Z,22.65
2022-08-11T13:52:05.467Z,21.83
2022-08-11T13:54:38.640Z,21.97
2022-08-11T13:57:13.855Z,21.10
2022-08-11T14:00:09.733Z,21.37
2022-08-11T14:02:45.558Z,22.22
2022-08-11T14:05:17.392Z,21.51
2022-08-11T14:07:50.681Z,22.30
2022-08-11T14:10:21.019Z,22.78
2022-08-11T14:13:12.566Z,21.88
2022-08-11T14:15:46.120Z,23.22
2022-08-11T14:18:20.300Z,22.79
2022-08-11T14:21:10.717Z,22.69
2022-08-11T14:23:41.831Z,22.97
2022-08-11T14:26:31.688Z,22.44
2022-08-11T14:29:03.687Z,22.73
2022-08-11T14:31:34.419Z,22.84
2022-08-11T14:34:06.449Z,23.47
2022-08-11T14:36:37.509Z,24.10
2022-08-11T14:39:13.108Z,24.14
2022-08-11T14:42:11.190Z,24.42
2022-08-11T14:45:16.685Z,24.86
2022-08-11T14:47:51.297Z,24.04
2022-08-11T14:50:23.974Z,24.82
2022-08-11T14:53:01.195Z,25.08
2022-08-11T14:55:48.933Z,24.74
2022-08-11T14:58:19.359Z,24.65
2022-08-11T15:00:48.591Z,24.88
2022-08-11T15:03:16.427Z,25.21
2022-08-11T15:05:56.561Z,25.07
2022-08-11T15:08:47.455Z,25.38
2022-08-11T15:11:35.199Z,26.19
2022-08-11T15:14:06.130Z,25.63
2022-08-11T15:16:52.458Z,25.25
2022-08-11T15:19:22.053Z,25.81
2022-08-11T15:22:09.430Z,24.88
2022-08-11T15:24:38.568Z,25.61
2022-08-11T15:27:30.034Z,26.18
2022-08-11T15:30:32.138Z,25.97
2022-08-11T15:33:22.937Z,26.20
2022-08-11T15:36:09.829Z,25.53
2022-08-11T15:38:43.861Z,25.88
2022-08-11T15:41:35.814Z,26.23
2022-08-11T15:44:44.739Z,26.21
2022-08-11T15:47:15.322Z,25.83
2022-08-11T15:50:11.128Z,25.54
2022-08-11T15:52:39.005Z,25.98
2022-08-11T15:55:10.280Z,26.24
2022-08-11T15:57:57.749Z,26.40
2022-08-11T16:00:44.483Z,26.07
2022-08-11T16:04:06.304Z,25.45
2022-08-11T16:06:23.906Z,25.91
2022-08-11T16:08:56.287Z,26.19
2022-08-11T16:11:27.548Z,25.94
2022-08-11T16:14:14.007Z,26.43
2022-08-11T16:16:46.097Z,25.90
2022-08-11T16:19:15.240Z,25.87
2022-08-11T16:21:44.936Z,26.71
2022-08-11T16:27:06.891Z,27.07
2022-08-11T16:27:13.463Z,25.97
2022-08-11T16:29:45.617Z,26.62
2022-08-11T16:32:19.355Z,26.83
2022-08-11T16:35:16.313Z,26.10
2022-08-11T16:38:04.175Z,26.21
2022-08-11T16:40:33.553Z,26.31
2022-08-11T16:43:24.181Z,26.51
2022-08-11T16:46:11.664Z,26.07
2022-08-11T16:48:42.655Z,26.68
2022-08-11T16:51:14.039Z,26.71
2022-08-11T16:53:59.726Z,26.43
2022-08-11T16:56:37.286Z,27.09
2022-08-11T16:59:15.905Z,28.02
2022-08-11T17:01:48.822Z,27.65
2022-08-11T17:04:41.864Z,28.06
2022-08-11T17:07:41.872Z,28.42
2022-08-11T17:10:51.143Z,27.64
2022-08-11T17:13:27.008Z,29.05
2022-08-11T17:16:08.987Z,29.54
2022-08-11T17:18:46.862Z,28.67
2022-08-11T17:21:21.636Z,28.16
2022-08-11T17:23:54.960Z,28.81
2022-08-11T17:26:27.856Z,29.42
2022-08-11T17:29:02.763Z,30.23
2022-08-11T17:32:04.381Z,30.18
2022-08-11T17:34:51.309Z,30.85
2022-08-11T17:37:20.954Z,29.57
2022-08-11T17:39:49.927Z,30.88
2022-08-11T17:42:36.452Z,30.04
2022-08-11T17:45:23.075Z,30.33
2022-08-11T17:48:10.636Z,30.53
2022-08-11T17:50:39.351Z,30.07
2022-08-11T17:53:25.182Z,29.32
2022-08-11T17:56:11.903Z,29.69
2022-08-11T17:58:59.017Z,31.45
2022-08-11T18:01:29.264Z,30.06
2022-08-11T18:03:58.874Z,30.46
2022-08-11T18:06:34.193Z,31.25
2022-08-11T18:09:24.538Z,30.57
2022-08-11T18:12:12.962Z,30.46
2022-08-11T18:15:03.493Z,31.72
2022-08-11T18:17:49.799Z,31.09
2022-08-11T18:20:37.643Z,32.20
2022-08-11T18:23:41.927Z,31.27
2022-08-11T18:26:36.609Z,31.16
2022-08-11T18:29:24.997Z,32.69
2022-08-11T18:32:21.163Z,33.10
2022-08-11T18:35:13.642Z,33.12
2022-08-11T18:38:05.670Z,33.82
2022-08-11T18:40:54.266Z,33.58
2022-08-11T18:43:43.074Z,32.84
2022-08-11T18:46:31.568Z,33.26
2022-08-11T18:49:22.680Z,32.67
2022-08-11T18:52:12.480Z,34.35
2022-08-11T18:55:03.653Z,33.76
2022-08-11T18:57:54.966Z,33.02
2022-08-11T19:00:42.276Z,33.67
2022-08-11T19:03:30.155Z,34.34
2022-08-11T19:06:39.813Z,34.34
2022-08-11T19:09:26.654Z,34.50
2022-08-11T19:12:15.538Z,34.34
2022-08-11T19:15:03.210Z,34.51
2022-08-11T19:17:51.244Z,34.88
2022-08-11T19:20:40.248Z,35.06
2022-08-11T19:23:28.253Z,34.95
2022-08-11T19:26:16.667Z,35.09
2022-08-11T19:29:07.661Z,34.98
2022-08-11T19:31:53.970Z,35.57
2022-08-11T19:34:41.695Z,35.92
2022-08-11T19:37:30.363Z,36.22
2022-08-11T19:40:19.947Z,36.52
2022-08-11T19:43:20.887Z,36.46
2022-08-11T19:46:17.302Z,36.98
2022-08-11T19:49:04.993Z,37.18
2022-08-11T19:51:54.207Z,37.57
2022-08-11T19:54:44.398Z,37.47
2022-08-11T19:57:35.719Z,37.75
2022-08-11T20:00:25.237Z,37.74
2022-08-11T20:03:18.791Z,37.84
2022-08-11T20:06:05.984Z,38.26
2022-08-11T20:08:56.444Z,38.07
2022-08-11T20:11:46.766Z,38.39
2022-08-11T20:14:33.522Z,38.26
2022-08-11T20:17:20.873Z,37.99
2022-08-11T20:20:09.025Z,38.30
2022-08-11T20:22:55.080Z,37.56
2022-08-11T20:25:43.339Z,37.80
2022-08-11T20:28:32.031Z,38.22
2022-08-11T20:31:17.850Z,38.40
2022-08-11T20:34:05.590Z,38.23
2022-08-11T20:36:55.101Z,38.28
2022-08-11T20:39:43.289Z,38.13
2022-08-11T20:42:31.081Z,38.27
2022-08-11T20:45:23.804Z,38.62
2022-08-11T20:48:15.291Z,38.67
2022-08-11T20:51:06.052Z,38.39
2022-08-11T20:53:56.682Z,38.52
2022-08-11T20:56:45.657Z,38.86
2022-08-11T20:59:49.303Z,38.23
2022-08-11T21:02:40.841Z,38.66
2022-08-11T21:06:08.695Z,38.63
2022-08-11T21:08:36.956Z,39.21
2022-08-11T21:11:27.983Z,38.90
2022-08-11T21:14:15.389Z,38.71
2022-08-11T21:17:04.550Z,38.57
2022-08-11T21:20:20.593Z,38.34
2022-08-11T21:23:14.981Z,38.28
2022-08-11T21:26:12.912Z,37.91
2022-08-11T21:29:01.780Z,38.18
2022-08-11T21:31:50.400Z,38.98
2022-08-11T21:34:38.678Z,39.16
2022-08-11T21:37:26.449Z,39.27
2022-08-11T21:40:16.948Z,39.36
2022-08-11T21:43:05.759Z,39.54
2022-08-11T21:45:55.569Z,40.12
2022-08-11T21:48:44.664Z,40.98
2022-08-11T21:51:30.461Z,41.01
2022-08-11T21:54:16.778Z,40.76
2022-08-11T21:57:04.470Z,40.95
2022-08-11T22:00:00.159Z,40.77
2022-08-11T22:02:49.006Z,40.84
2022-08-11T22:05:39.593Z,40.62
2022-08-11T22:08:26.311Z,40.56
2022-08-11T22:11:11.926Z,40.72
2022-08-11T22:14:05.954Z,41.18
2022-08-11T22:16:53.857Z,41.53
2022-08-11T22:19:42.051Z,41.73
2022-08-11T22:22:31.554Z,41.54
2022-08-11T22:25:18.671Z,42.05
2022-08-11T22:28:04.287Z,42.12
2022-08-11T22:30:50.263Z,42.74
2022-08-11T22:33:36.489Z,43.22
2022-08-11T22:36:30.415Z,43.19
2022-08-11T22:39:18.837Z,43.69
2022-08-11T22:42:04.958Z,44.61
2022-08-11T22:44:50.835Z,44.67
2022-08-11T22:47:40.370Z,46.02
2022-08-11T22:50:29.363Z,46.10
2022-08-11T22:53:17.637Z,45.81
2022-08-11T22:56:04.371Z,45.67
2022-08-11T22:58:50.736Z,45.12
2022-08-11T23:01:37.762Z,45.02
2022-08-11T23:04:24.338Z,45.57
2022-08-11T23:07:11.057Z,45.38
2022-08-11T23:09:58.829Z,45.22
2022-08-11T23:12:45.471Z,45.21
2022-08-11T23:15:33.201Z,45.52
2022-08-11T23:18:20.724Z,45.47
2022-08-11T23:21:06.988Z,45.65
2022-08-11T23:23:53.494Z,45.85
2022-08-11T23:26:41.634Z,45.32
2022-08-11T23:29:28.030Z,45.59
2022-08-11T23:32:14.867Z,45.47
2022-08-11T23:35:39.350Z,46.04
2022-08-11T23:38:11.483Z,46.21
2022-08-11T23:40:56.737Z,46.53
2022-08-11T23:43:43.817Z,46.83
2022-08-11T23:46:29.586Z,46.68
2022-08-11T23:49:17.943Z,47.47
2022-08-11T23:52:07.446Z,47.49
2022-08-11T23:54:54.610Z,47.04
2022-08-11T23:57:47.968Z,46.89
